Time;durP1;ratioP1;P1;durP2;ratioP2;P2;SDS_P1;SDS_P2;PMS_P1;PMS_P2;Temp;Humidity;BMP_temperature;BMP_pressure;BME280_temperature;BME280_humidity;BME280_pressure;Samples;Min_cycle;Max_cycle;Signal;HPM_P1;HPM_P2
2023/10/15 00:00:00;;;;;;;2.58;0.63;;;;;;;18.01;63.82;101254.38;20793365;28;20049;-67
2023/10/15 00:10:02;;;;;;;2.55;0.80;;;;;;;18.00;63.95;101228.41;20792563;28;20054;-67
2023/10/15 00:20:06;;;;;;;1.25;0.65;;;;;;;17.99;63.98;101273.31;20791193;28;20052;-67
2023/10/15 00:30:19;;;;;;;1.63;0.68;;;;;;;18.01;64.20;101287.56;20791625;28;20053;-67
2023/10/15 00:40:22;;;;;;;1.77;0.70;;;;;;;17.99;64.12;101246.38;20790630;28;20391;-67
2023/10/15 00:50:24;;;;;;;1.63;0.70;;;;;;;17.95;64.38;101245.81;20857934;28;20505;-67
2023/10/15 01:10:49;;;;;;;1.15;0.50;;;;;;;17.93;64.53;101245.06;20772009;28;20057;-67
2023/10/15 01:20:51;;;;;;;1.37;0.43;;;;;;;17.91;64.65;101247.03;20789006;28;20056;-67
2023/10/15 01:30:53;;;;;;;1.42;0.50;;;;;;;17.90;64.61;101239.06;20788451;28;20053;-67
2023/10/15 01:40:56;;;;;;;1.02;0.43;;;;;;;17.87;64.79;101232.09;20770758;28;20046;-67
2023/10/15 01:51:07;;;;;;;1.02;0.63;;;;;;;17.86;64.73;101251.09;20791897;28;20056;-67
2023/10/15 02:01:13;;;;;;;1.73;0.40;;;;;;;17.85;64.48;101239.44;20865765;28;20049;-67
2023/10/15 02:11:21;;;;;;;1.10;0.50;;;;;;;17.83;64.67;101236.91;20883439;28;20160;-67
2023/10/15 02:21:23;;;;;;;0.75;0.40;;;;;;;17.81;64.78;101236.19;20866104;28;20138;-67
2023/10/15 02:31:29;;;;;;;1.02;0.40;;;;;;;17.80;64.72;101239.84;20848636;28;20045;-67
2023/10/15 02:41:31;;;;;;;1.33;0.40;;;;;;;17.78;64.51;101244.50;20882495;28;20511;-67
2023/10/15 02:51:35;;;;;;;0.95;0.40;;;;;;;17.76;64.57;101259.94;20881610;28;20045;-67
2023/10/15 03:01:37;;;;;;;1.27;0.50;;;;;;;17.72;64.61;101298.88;20880193;28;20056;-67
2023/10/15 03:11:39;;;;;;;0.30;0.28;;;;;;;17.72;64.52;101279.16;20845408;28;20102;-67
2023/10/15 03:21:41;;;;;;;1.15;0.40;;;;;;;17.68;64.79;101268.63;20879257;28;20060;-67
2023/10/15 03:31:46;;;;;;;1.05;0.50;;;;;;;17.65;64.63;101268.03;20860237;28;20056;-67
2023/10/15 03:52:14;;;;;;;0.43;0.30;;;;;;;17.61;64.56;101275.50;20877111;28;20422;-67
2023/10/15 04:02:39;;;;;;;0.85;0.40;;;;;;;17.61;64.54;101274.63;20875711;28;20048;-68
2023/10/15 04:12:43;;;;;;;0.70;0.30;;;;;;;17.58;64.00;101270.38;20874184;28;20049;-67
2023/10/15 04:22:51;;;;;;;0.70;0.40;;;;;;;17.54;63.95;101287.78;20874306;28;20103;-67
2023/10/15 04:32:56;;;;;;;0.52;0.40;;;;;;;17.52;63.83;101298.66;20857013;28;20055;-67
2023/10/15 04:43:00;;;;;;;;;;;;;;;17.50;63.80;101283.63;20831334;28;20051;-67
2023/10/15 05:03:19;;;;;;;1.38;0.60;;;;;;;17.46;63.84;101277.63;20794111;28;20107;-67
2023/10/15 05:13:21;;;;;;;0.80;0.50;;;;;;;17.44;63.62;101274.19;20790478;28;20068;-67
2023/10/15 05:23:25;;;;;;;0.55;0.40;;;;;;;17.43;63.70;101268.91;20796386;28;20618;-67
2023/10/15 05:33:28;;;;;;;0.60;0.33;;;;;;;17.39;63.62;101258.41;20806528;28;20420;-67
2023/10/15 05:43:30;;;;;;;0.80;0.30;;;;;;;17.44;63.44;101273.31;20805830;28;20049;-67
2023/10/15 05:53:32;;;;;;;2.00;0.50;;;;;;;17.43;63.54;101277.00;20803752;28;20050;-67
2023/10/15 06:03:35;;;;;;;0.75;0.30;;;;;;;17.42;63.67;101292.31;20838960;28;20052;-67
2023/10/15 06:13:37;;;;;;;0.40;0.30;;;;;;;17.45;63.31;101308.19;20816645;28;20049;-67
2023/10/15 06:23:39;;;;;;;0.52;0.32;;;;;;;17.51;63.47;101334.63;20801400;28;20533;-67
2023/10/15 06:33:41;;;;;;;0.43;0.20;;;;;;;17.54;63.30;101339.75;20804879;28;20457;-67
2023/10/15 06:43:43;;;;;;;0.40;0.20;;;;;;;17.62;63.06;101346.34;20795777;28;20131;-67
2023/10/15 06:53:45;;;;;;;0.75;0.30;;;;;;;17.68;62.87;101327.03;20820119;28;20052;-67
2023/10/15 07:03:47;;;;;;;0.63;0.22;;;;;;;17.70;62.70;101341.22;20797203;28;20041;-63
2023/10/15 07:13:49;;;;;;;0.73;0.28;;;;;;;17.77;63.96;101372.06;20791712;28;20146;-62
2023/10/15 07:23:53;;;;;;;3.47;0.57;;;;;;;17.77;65.35;101403.50;20801543;28;20053;-62
2023/10/15 07:33:54;;;;;;;1.58;0.30;;;;;;;18.07;65.17;101429.84;20794641;28;20068;-61
2023/10/15 07:43:56;;;;;;;1.85;0.95;;;;;;;18.20;64.78;101453.94;20794602;28;20502;-61
2023/10/15 07:53:58;;;;;;;2.38;0.70;;;;;;;18.25;64.88;101507.50;20810823;28;20047;-60
2023/10/15 08:04:00;;;;;;;2.08;0.50;;;;;;;18.26;65.29;101493.03;20801060;28;20075;-60
2023/10/15 08:14:02;;;;;;;1.38;0.50;;;;;;;18.29;65.36;101482.00;20789788;28;20060;-61
2023/10/15 08:24:14;;;;;;;1.75;0.50;;;;;;;18.47;64.95;101458.06;21019578;27;20861;-65
2023/10/15 08:34:16;;;;;;;1.08;0.50;;;;;;;18.74;64.57;101464.00;21009278;28;20044;-63
2023/10/15 08:44:18;;;;;;;0.45;0.32;;;;;;;19.02;64.41;101480.59;21010529;28;20559;-63
2023/10/15 08:54:25;;;;;;;1.65;0.40;;;;;;;19.03;64.25;101496.66;20952527;28;20052;-64
2023/10/15 09:04:27;;;;;;;0.77;0.40;;;;;;;19.07;64.23;101491.88;20936282;28;20520;-63
2023/10/15 09:14:43;;;;;;;0.50;0.30;;;;;;;19.22;64.15;101520.25;20918987;28;20150;-63
2023/10/15 09:24:46;;;;;;;1.27;0.30;;;;;;;19.27;63.66;101536.91;20934744;28;20052;-63
2023/10/15 09:34:48;;;;;;;0.85;0.30;;;;;;;19.53;63.34;101544.63;20886823;28;20416;-63
2023/10/15 09:44:50;;;;;;;0.68;0.22;;;;;;;19.81;62.72;101571.94;20884864;28;20497;-63
2023/10/15 09:54:55;;;;;;;0.75;0.45;;;;;;;19.93;62.29;101569.22;20884552;28;20052;-63
2023/10/15 10:05:27;;;;;;;0.70;0.37;;;;;;;19.91;62.35;101588.25;20884444;28;20052;-63
2023/10/15 10:15:36;;;;;;;1.60;0.40;;;;;;;19.86;62.23;101599.44;20978948;28;20080;-63
2023/10/15 10:25:45;;;;;;;1.15;0.30;;;;;;;19.83;62.17;101597.00;20963266;28;20507;-63
2023/10/15 10:35:47;;;;;;;0.60;0.30;;;;;;;19.88;61.96;101614.66;20964134;28;20055;-63
2023/10/15 10:45:53;;;;;;;1.05;0.50;;;;;;;19.83;61.85;101628.56;20954949;28;20055;-63
2023/10/15 10:56:05;;;;;;;0.22;0.20;;;;;;;19.74;61.90;101632.91;20962465;28;20428;-63
2023/10/15 11:06:09;;;;;;;0.60;0.20;;;;;;;19.81;62.06;101626.00;20962011;28;20044;-63
2023/10/15 11:16:11;;;;;;;1.03;0.30;;;;;;;19.92;62.15;101618.84;20958926;28;20416;-63
2023/10/15 11:26:15;;;;;;;1.00;0.50;;;;;;;20.06;61.81;101640.13;20960606;28;20790;-63
2023/10/15 11:36:17;;;;;;;1.10;0.40;;;;;;;20.16;61.60;101623.97;20957605;28;20057;-63
2023/10/15 11:46:23;;;;;;;1.85;0.45;;;;;;;20.24;61.41;101626.00;20958001;28;20064;-63
2023/10/15 11:56:26;;;;;;;0.85;0.30;;;;;;;20.28;61.04;101622.03;20956407;28;20139;-63
2023/10/15 12:06:28;;;;;;;0.70;0.30;;;;;;;20.36;60.80;101634.88;20944195;28;20060;-63
2023/10/15 12:16:30;;;;;;;1.08;0.30;;;;;;;20.37;60.53;101637.47;20873844;28;20083;-63
2023/10/15 12:26:32;;;;;;;1.20;0.40;;;;;;;20.39;60.13;101651.72;20874159;28;20106;-63
2023/10/15 12:36:33;;;;;;;1.25;0.52;;;;;;;20.38;59.75;101659.94;20871683;28;20056;-63
2023/10/15 12:46:35;;;;;;;1.30;0.50;;;;;;;20.31;59.39;101670.44;20873440;28;20062;-63
2023/10/15 12:56:37;;;;;;;0.82;0.40;;;;;;;20.21;59.25;101670.41;20871148;28;20051;-63
2023/10/15 13:06:41;;;;;;;0.85;0.50;;;;;;;20.11;59.33;101674.88;20881561;28;20064;-63
2023/10/15 13:16:43;;;;;;;1.35;0.50;;;;;;;20.06;59.05;101699.59;20887868;28;20060;-63
2023/10/15 13:26:47;;;;;;;0.75;0.30;;;;;;;20.00;58.85;101709.06;20887013;28;20045;-63
2023/10/15 13:36:49;;;;;;;1.00;0.53;;;;;;;19.95;58.72;101711.31;20919352;28;20056;-63
2023/10/15 13:46:53;;;;;;;0.90;0.50;;;;;;;19.83;58.59;101709.63;20968414;28;20048;-63
2023/10/15 13:56:57;;;;;;;1.20;0.30;;;;;;;19.85;58.36;101723.88;20967415;28;20052;-63
2023/10/15 14:06:59;;;;;;;1.63;0.50;;;;;;;19.81;58.36;101739.47;20966499;28;20728;-63
2023/10/15 14:17:01;;;;;;;0.90;0.52;;;;;;;19.76;58.10;101768.72;20965314;28;20049;-63
2023/10/15 14:27:03;;;;;;;0.80;0.40;;;;;;;19.70;57.97;101758.44;20965156;28;20045;-63
2023/10/15 14:37:06;;;;;;;2.22;0.30;;;;;;;19.68;57.84;101760.41;20961809;28;20052;-63
2023/10/15 14:47:08;;;;;;;0.98;0.47;;;;;;;19.63;57.79;101747.25;20963354;28;20044;-63
2023/10/15 14:57:13;;;;;;;1.75;0.55;;;;;;;19.61;57.88;101764.59;20962092;28;20048;-63
2023/10/15 15:07:14;;;;;;;1.50;0.40;;;;;;;19.54;57.75;101775.03;20961925;28;20051;-63
2023/10/15 15:17:16;;;;;;;1.33;0.50;;;;;;;19.48;57.89;101802.56;20960574;28;20514;-63
2023/10/15 15:27:18;;;;;;;1.70;0.52;;;;;;;19.44;57.82;101774.06;20959435;28;20055;-63
2023/10/15 15:37:20;;;;;;;1.23;0.43;;;;;;;19.37;57.94;101781.81;20958944;28;20052;-63
2023/10/15 15:47:22;;;;;;;1.00;0.38;;;;;;;19.30;57.91;101777.91;20946338;28;20416;-63
2023/10/15 15:57:24;;;;;;;0.55;0.38;;;;;;;19.12;58.20;101773.84;20943560;28;20102;-65
2023/10/15 16:07:27;;;;;;;6.57;0.80;;;;;;;19.16;58.69;101798.78;20934506;28;20044;-63
2023/10/15 16:17:28;;;;;;;1.33;0.50;;;;;;;19.15;59.00;101797.06;20903077;28;20045;-63
2023/10/15 16:27:31;;;;;;;1.60;0.38;;;;;;;19.13;59.84;101816.06;20902403;28;20074;-61
2023/10/15 16:37:32;;;;;;;1.02;0.50;;;;;;;19.21;60.15;101820.84;20911240;28;20048;-61
2023/10/15 16:47:36;;;;;;;1.08;0.40;;;;;;;19.22;60.28;101851.38;20923345;28;20075;-63
2023/10/15 16:57:40;;;;;;;2.88;0.70;;;;;;;19.18;64.22;101850.78;20861701;28;20051;-62
2023/10/15 17:07:42;;;;;;;1.92;0.50;;;;;;;19.09;67.63;101851.53;20894994;28;20169;-62
2023/10/15 17:17:44;;;;;;;0.95;0.40;;;;;;;19.21;68.36;101861.34;20915804;28;20052;-64
2023/10/15 17:27:46;;;;;;;2.22;0.52;;;;;;;19.37;68.18;101869.09;20868888;28;20128;-61
2023/10/15 17:37:47;;;;;;;1.02;0.50;;;;;;;19.32;67.87;101856.94;20836933;28;20053;-62
2023/10/15 17:47:49;;;;;;;1.00;0.40;;;;;;;19.26;67.58;101863.69;20838660;28;20060;-61
2023/10/15 17:57:51;;;;;;;1.55;0.90;;;;;;;19.13;67.12;101880.84;20907371;28;20044;-62
2023/10/15 18:07:53;;;;;;;1.15;0.50;;;;;;;19.09;66.52;101883.91;20892196;28;20069;-62
2023/10/15 18:17:56;;;;;;;1.63;0.40;;;;;;;19.00;66.12;101890.88;20850566;28;20055;-62
2023/10/15 18:27:58;;;;;;;0.70;0.30;;;;;;;18.91;65.64;101897.81;20881382;28;20055;-62
2023/10/15 18:37:59;;;;;;;1.70;0.63;;;;;;;18.80;65.35;101911.28;20880202;28;20083;-62
2023/10/15 18:48:01;;;;;;;2.15;0.45;;;;;;;18.66;65.08;101899.72;20861540;28;20056;-63
2023/10/15 18:58:04;;;;;;;1.45;0.40;;;;;;;18.60;64.34;101904.72;20892610;28;20052;-64
2023/10/15 19:08:07;;;;;;;1.45;0.40;;;;;;;18.50;64.05;101894.63;20876404;28;20052;-66
2023/10/15 19:18:09;;;;;;;2.72;0.57;;;;;;;18.49;63.57;101908.22;20857201;28;20128;-66
2023/10/15 19:28:13;;;;;;;0.80;0.50;;;;;;;18.41;63.15;101906.94;20929063;28;20420;-66
2023/10/15 19:38:15;;;;;;;0.88;0.40;;;;;;;18.36;63.09;101917.22;20943435;28;20440;-65
2023/10/15 19:48:16;;;;;;;1.70;0.57;;;;;;;18.29;62.64;101913.28;20937314;28;20049;-65
2023/10/15 19:58:18;;;;;;;2.15;0.50;;;;;;;18.22;62.62;101926.34;20933684;28;20456;-65
2023/10/15 20:08:20;;;;;;;1.80;0.50;;;;;;;18.17;62.49;101931.22;20872852;28;20472;-65
2023/10/15 20:18:26;;;;;;;1.90;0.50;;;;;;;18.14;62.15;101941.38;20857999;28;20532;-65
2023/10/15 20:28:28;;;;;;;1.15;0.40;;;;;;;18.08;62.04;101940.81;20873263;28;20068;-65
2023/10/15 20:38:30;;;;;;;1.40;0.50;;;;;;;18.04;61.74;101931.25;20872878;28;20053;-65
2023/10/15 20:48:33;;;;;;;0.85;0.47;;;;;;;18.02;61.74;101941.28;20872503;28;20141;-65
2023/10/15 20:58:35;;;;;;;1.20;0.57;;;;;;;18.00;61.51;101936.94;20872031;28;20084;-65
2023/10/15 21:08:37;;;;;;;0.93;0.52;;;;;;;17.92;61.35;101927.59;20871573;28;20094;-65
2023/10/15 21:18:39;;;;;;;1.42;0.60;;;;;;;17.93;61.22;101950.00;20871080;28;20048;-65
2023/10/15 21:28:41;;;;;;;0.90;0.50;;;;;;;17.92;61.08;101932.97;20880686;28;20130;-65
2023/10/15 21:38:42;;;;;;;1.95;0.65;;;;;;;17.90;61.14;101939.44;20885057;28;20102;-66
2023/10/15 21:48:44;;;;;;;1.63;0.60;;;;;;;17.90;60.93;101934.06;20882722;28;20053;-66
2023/10/15 21:58:48;;;;;;;0.83;0.60;;;;;;;17.88;61.12;101933.31;20883820;28;20568;-66
2023/10/15 22:08:50;;;;;;;1.42;0.60;;;;;;;17.81;60.96;101914.03;20881219;28;20053;-66
2023/10/15 22:18:52;;;;;;;0.77;0.40;;;;;;;17.82;60.96;101922.00;20881762;28;20045;-65
2023/10/15 22:28:57;;;;;;;0.50;0.50;;;;;;;17.86;60.93;101937.94;20881996;28;20056;-65
2023/10/15 22:38:59;;;;;;;1.83;0.60;;;;;;;17.83;61.17;101912.94;20880059;28;20126;-65
2023/10/15 22:49:01;;;;;;;2.33;0.63;;;;;;;17.82;60.91;101910.34;20877983;28;20056;-65
2023/10/15 22:59:02;;;;;;;0.50;0.30;;;;;;;17.82;60.99;101905.84;20878899;28;20417;-65
2023/10/15 23:09:05;;;;;;;1.15;0.40;;;;;;;17.83;61.14;101902.19;20878298;28;20048;-66
2023/10/15 23:19:07;;;;;;;1.05;0.40;;;;;;;17.84;61.11;101900.31;20877495;28;20088;-66
2023/10/15 23:29:09;;;;;;;0.40;0.40;;;;;;;17.75;61.08;101893.81;20876608;28;20461;-66
2023/10/15 23:39:15;;;;;;;1.50;0.63;;;;;;;17.80;61.07;101902.41;20875805;28;20064;-66
2023/10/15 23:49:25;;;;;;;0.85;0.40;;;;;;;17.78;61.24;101904.34;20874629;28;20136;-65
2023/10/15 23:59:27;;;;;;;1.08;0.40;;;;;;;17.78;61.24;101909.72;20876214;28;20130;-65
